Stations météo

réclame
Mon MeteoGroup
Tarfala, Suède (2029): Température de l'air & dewpoint: 24.09.2020 04:00:00 - 30.09.2020 04:00:00 (CEST)Tarfala, Suède (2029): Vitesse du vent & gusts: 24.09.2020 04:00:00 - 30.09.2020 04:00:00 (CEST)Tarfala, Suède (2029): Direction du vent: 24.09.2020 04:00:00 - 30.09.2020 04:00:00 (CEST)
Date & Time tt [°C] td [°C] ff [km/h] ff [knt] fx [km/h] fx [knt] dd
30.09.2020 04:00:00 - - - - - - -
30.09.2020 03:00:00 5,1 0,5 5 3 15 8 NNW
30.09.2020 02:00:00 5,3 1,6 8 4 14 8 NNW
30.09.2020 01:00:00 4,1 0,6 8 5 15 8 NNW
30.09.2020 00:00:00 5,0 0,9 4 2 13 7 SE
29.09.2020 23:00:00 5,5 1,2 6 3 12 6 NNW
29.09.2020 22:00:00 5,9 1,5 7 4 14 8 N
29.09.2020 21:00:00 5,6 0,4 8 4 13 7 NNW
29.09.2020 20:00:00 5,3 0,9 7 4 11 6 NNW
29.09.2020 19:00:00 5,2 1,0 11 6 14 8 NNW
29.09.2020 18:00:00 4,8 1,3 4 2 15 8 N
29.09.2020 17:00:00 8,5 2,8 8 5 13 7 N
29.09.2020 16:00:00 7,2 2,1 7 4 18 10 NNW
29.09.2020 15:00:00 7,9 1,9 9 5 13 7 NNW
29.09.2020 14:00:00 6,0 2,5 6 3 9 5 SSE
29.09.2020 13:00:00 8,1 1,9 4 2 11 6 W
29.09.2020 12:00:00 5,8 2,1 4 2 11 6 NNW
29.09.2020 11:00:00 6,4 1,5 4 2 14 8 NNW
29.09.2020 10:00:00 6,7 1,2 7 4 12 7 N
29.09.2020 09:00:00 5,0 0,4 5 3 9 5 NNW
29.09.2020 08:00:00 6,0 1,7 3 1 13 7 N
29.09.2020 07:00:00 5,6 2,4 6 3 13 7 N
29.09.2020 06:00:00 5,5 2,7 9 5 13 7 NNW
29.09.2020 05:00:00 6,8 3,2 4 2 14 7 ENE
29.09.2020 04:00:00 7,1 2,4 5 3 14 7 SSE
29.09.2020 03:00:00 7,1 2,4 6 3 15 8 NE
29.09.2020 02:00:00 5,8 1,5 3 2 10 5 N
29.09.2020 01:00:00 5,7 2,5 4 2 18 10 E
29.09.2020 00:00:00 4,5 2,7 3 1 11 6 N
28.09.2020 23:00:00 5,6 3,3 6 3 11 6 NNW
28.09.2020 22:00:00 7,4 3,6 8 4 21 11 N
28.09.2020 21:00:00 5,0 3,0 10 5 14 8 NNW
28.09.2020 20:00:00 5,9 2,4 6 4 16 9 N
28.09.2020 19:00:00 5,9 3,4 7 4 14 8 NNW
28.09.2020 18:00:00 7,2 3,9 4 2 11 6 NE
28.09.2020 17:00:00 6,7 3,5 6 3 17 9 NNW
28.09.2020 16:00:00 7,2 3,9 4 2 14 8 ENE
28.09.2020 15:00:00 7,6 4,9 7 4 14 8 SE
28.09.2020 14:00:00 7,1 4,1 5 3 25 14 SE
28.09.2020 13:00:00 9,1 5,1 6 4 29 16 NNE
28.09.2020 12:00:00 8,9 4,4 15 8 33 18 NW
28.09.2020 11:00:00 7,2 5,0 5 3 13 7 NNE
28.09.2020 10:00:00 7,1 4,9 4 2 14 8 ESE
28.09.2020 09:00:00 5,2 4,3 3 2 8 4 N
28.09.2020 08:00:00 3,9 3,3 4 2 11 6 WSW
28.09.2020 07:00:00 2,8 2,3 4 2 18 10 SE
28.09.2020 06:00:00 4,5 3,9 4 2 14 8 E
28.09.2020 05:00:00 1,9 1,3 4 2 14 8 SE
28.09.2020 04:00:00 1,5 1,4 7 4 12 6 NNW
28.09.2020 03:00:00 1,8 1,4 4 2 11 6 N
28.09.2020 02:00:00 2,9 1,6 5 3 13 7 NNE
28.09.2020 01:00:00 2,1 -0,8 7 4 11 6 NNW
28.09.2020 00:00:00 1,8 -1,1 2 1 10 6 ENE
27.09.2020 23:00:00 1,0 -5,5 6 4 12 7 NNW
27.09.2020 22:00:00 0,5 -7,8 4 2 7 4 W
27.09.2020 21:00:00 0,0 -9,4 3 2 15 8 NE
27.09.2020 20:00:00 -0,9 -12,3 10 5 13 7 NNW
27.09.2020 19:00:00 -0,4 -14,6 4 2 14 8 NNW
27.09.2020 18:00:00 -0,5 -14,9 9 5 15 8 NNW
27.09.2020 17:00:00 -2,1 -14,3 6 4 14 8 NNW
27.09.2020 16:00:00 -0,6 -12,5 7 4 13 7 N
27.09.2020 15:00:00 -2,2 -11,1 8 4 13 7 NNW
27.09.2020 14:00:00 -1,8 -9,6 6 3 10 5 N
27.09.2020 13:00:00 -2,6 -10,2 6 4 11 6 NNW
27.09.2020 12:00:00 -2,7 -11,4 7 4 10 5 NNW
27.09.2020 11:00:00 -2,8 -12,4 4 2 11 6 NNW
27.09.2020 10:00:00 -2,9 -13,5 3 2 11 6 SE
27.09.2020 09:00:00 -3,5 -13,8 4 2 10 6 NNW
27.09.2020 08:00:00 -4,2 -13,8 5 3 14 7 NNW
27.09.2020 07:00:00 -5,7 -13,2 9 5 13 7 NNW
27.09.2020 06:00:00 -5,3 -14,4 4 2 8 4 NNW
27.09.2020 05:00:00 -4,1 -16,1 3 2 9 5 N
27.09.2020 04:00:00 -5,4 -13,2 7 4 10 6 NNW
27.09.2020 03:00:00 -5,6 -12,9 4 2 10 6 NW
27.09.2020 02:00:00 -6,4 -11,9 7 4 10 5 NW
27.09.2020 01:00:00 -6,2 -11,3 6 3 13 7 NW
27.09.2020 00:00:00 -6,5 -11,2 8 4 13 7 NNW
26.09.2020 23:00:00 -6,0 -11,6 2 1 13 7 ESE
26.09.2020 22:00:00 -6,5 -11,4 7 4 11 6 NW
26.09.2020 21:00:00 -4,2 -11,0 6 3 12 7 N
26.09.2020 20:00:00 -4,9 -10,3 6 4 10 6 NNW
26.09.2020 19:00:00 -5,6 -10,6 6 4 13 7 NW
26.09.2020 18:00:00 -4,5 -9,0 7 4 14 8 NNW
26.09.2020 17:00:00 -4,9 -10,1 10 5 16 9 NW
26.09.2020 16:00:00 -3,8 -9,8 9 5 13 7 NW
26.09.2020 15:00:00 -3,1 -8,9 6 3 10 5 NNW
26.09.2020 14:00:00 -2,1 -7,6 4 2 8 4 N
26.09.2020 13:00:00 -1,2 -4,7 0 0 8 5 N
26.09.2020 12:00:00 -1,8 -5,0 0 0 9 5 N
26.09.2020 11:00:00 -1,6 -5,9 4 2 14 8 N
26.09.2020 10:00:00 -1,8 -6,6 4 2 14 8 ESE
26.09.2020 09:00:00 -1,9 -6,8 5 3 14 7 N
26.09.2020 08:00:00 -2,8 -5,6 5 3 9 5 SSE
26.09.2020 07:00:00 -2,3 -6,0 3 1 11 6 NW
26.09.2020 06:00:00 -2,4 -5,5 4 2 9 5 N
26.09.2020 05:00:00 -1,8 -5,0 9 5 36 19 SE
26.09.2020 04:00:00 -0,5 -7,1 24 13 45 25 NW
26.09.2020 03:00:00 -0,5 -6,3 17 9 42 23 NW
26.09.2020 02:00:00 -0,7 -5,5 6 3 26 14 W
26.09.2020 01:00:00 -0,8 -5,6 5 3 53 28 SSE
26.09.2020 00:00:00 -0,2 -5,0 26 14 46 25 NW
25.09.2020 23:00:00 0,2 -5,5 20 11 45 25 W
25.09.2020 22:00:00 0,9 -5,7 25 14 54 29 W
25.09.2020 21:00:00 0,9 -4,7 37 20 68 37 NW
25.09.2020 20:00:00 1,0 -3,1 33 18 90 49 NW
25.09.2020 19:00:00 1,8 -1,8 40 21 90 49 NNW
25.09.2020 18:00:00 2,3 -1,1 47 25 101 54 N
25.09.2020 17:00:00 3,3 0,5 20 11 72 39 W
25.09.2020 16:00:00 3,2 1,0 22 12 83 45 NNW
25.09.2020 15:00:00 3,0 0,9 25 14 - - N
25.09.2020 14:00:00 2,8 0,5 20 11 64 35 NNW
25.09.2020 13:00:00 3,2 1,8 11 6 32 18 NW
25.09.2020 12:00:00 1,0 0,9 14 8 25 14 SE
25.09.2020 11:00:00 0,5 0,4 8 4 22 12 SSE
25.09.2020 10:00:00 0,9 0,8 12 6 27 15 SE
25.09.2020 09:00:00 - - - - - - -
25.09.2020 08:00:00 1,3 1,2 12 6 17 9 SE
25.09.2020 07:00:00 -0,7 -0,8 4 2 27 15 WSW
25.09.2020 06:00:00 0,2 -0,2 10 5 19 10 SE
25.09.2020 05:00:00 -1,3 -1,6 7 4 16 9 N
25.09.2020 04:00:00 -2,9 -3,3 9 5 18 10 ESE
25.09.2020 03:00:00 -2,7 -3,1 4 2 11 6 SSW
25.09.2020 02:00:00 -3,1 -3,5 6 3 11 6 SE
25.09.2020 01:00:00 -2,7 -3,1 4 2 10 5 NNW
25.09.2020 00:00:00 -3,2 -3,7 3 1 12 6 W
24.09.2020 23:00:00 -3,4 -3,9 4 2 13 7 WSW
24.09.2020 22:00:00 -3,5 -4,0 6 4 16 8 S
24.09.2020 21:00:00 -3,4 -4,2 7 4 29 16 SSW
24.09.2020 20:00:00 -3,3 -3,8 5 3 9 5 SSE
24.09.2020 19:00:00 -3,5 -4,3 4 2 29 16 S
24.09.2020 18:00:00 -1,6 -6,5 6 4 20 11 SE
24.09.2020 17:00:00 -1,5 -6,8 4 2 16 9 SE
24.09.2020 16:00:00 -1,0 -8,8 4 2 13 7 SE
24.09.2020 15:00:00 -1,3 -8,7 6 3 9 5 N
24.09.2020 14:00:00 -1,6 -6,9 5 3 15 8 NNW
24.09.2020 13:00:00 -1,7 -6,4 4 2 9 5 N
24.09.2020 12:00:00 -1,5 -8,7 6 4 13 7 SSW
24.09.2020 11:00:00 -1,6 -10,4 13 7 22 12 NNE
24.09.2020 10:00:00 -1,2 -10,8 19 10 50 27 NNW
24.09.2020 09:00:00 -1,7 -10,0 28 15 51 28 NW
24.09.2020 08:00:00 -2,1 -10,6 25 14 59 32 NW
24.09.2020 07:00:00 -1,8 -8,8 36 19 74 40 NW
24.09.2020 06:00:00 -1,3 -7,8 32 18 - - NNW
24.09.2020 05:00:00 -1,2 -7,8 35 19 80 43 NNW
24.09.2020 04:00:00 -0,9 -5,4 47 25 105 57 NNW

tt = Température de l'air
td = dewpoint
ff = Vitesse du vent
fx = gusts
dd = Direction du vent

stations d'obs. à proximité